sensor_id;sensor_type;location;lat;lon;timestamp;pressure;altitude;pressure_sealevel;temperature;humidity
64200;BME280;50516;52.272;5.136;2024-01-15T00:00:48;100292.03;;;3.24;88.46
64200;BME280;50516;52.272;5.136;2024-01-15T00:03:14;100283.91;;;3.24;87.84
64200;BME280;50516;52.272;5.136;2024-01-15T00:05:39;100287.56;;;3.30;87.88
64200;BME280;50516;52.272;5.136;2024-01-15T00:08:08;100276.84;;;3.23;87.56
64200;BME280;50516;52.272;5.136;2024-01-15T00:10:40;100279.31;;;3.13;87.54
64200;BME280;50516;52.272;5.136;2024-01-15T00:13:06;100274.84;;;3.07;86.82
64200;BME280;50516;52.272;5.136;2024-01-15T00:15:31;100268.38;;;3.20;86.70
64200;BME280;50516;52.272;5.136;2024-01-15T00:17:57;100267.84;;;3.23;86.85
64200;BME280;50516;52.272;5.136;2024-01-15T00:20:25;100265.38;;;3.21;87.52
64200;BME280;50516;52.272;5.136;2024-01-15T00:22:54;100258.09;;;3.22;87.39
64200;BME280;50516;52.272;5.136;2024-01-15T00:25:20;100257.50;;;3.20;87.64
64200;BME280;50516;52.272;5.136;2024-01-15T00:27:45;100257.59;;;3.13;87.46
64200;BME280;50516;52.272;5.136;2024-01-15T00:30:11;100263.50;;;3.10;87.81
64200;BME280;50516;52.272;5.136;2024-01-15T00:32:36;100262.69;;;3.09;87.43
64200;BME280;50516;52.272;5.136;2024-01-15T00:35:02;100264.22;;;2.93;86.40
64200;BME280;50516;52.272;5.136;2024-01-15T00:37:28;100254.22;;;3.06;86.14
64200;BME280;50516;52.272;5.136;2024-01-15T00:39:59;100255.50;;;3.15;86.54
64200;BME280;50516;52.272;5.136;2024-01-15T00:42:24;100259.50;;;3.13;85.43
64200;BME280;50516;52.272;5.136;2024-01-15T00:44:50;100249.94;;;3.22;86.20
64200;BME280;50516;52.272;5.136;2024-01-15T00:47:15;100253.13;;;3.19;86.40
64200;BME280;50516;52.272;5.136;2024-01-15T00:49:40;100241.81;;;3.10;86.91
64200;BME280;50516;52.272;5.136;2024-01-15T00:52:09;100246.88;;;3.06;87.47
64200;BME280;50516;52.272;5.136;2024-01-15T00:54:34;100250.78;;;3.10;87.29
64200;BME280;50516;52.272;5.136;2024-01-15T00:57:03;100256.78;;;3.13;87.21
64200;BME280;50516;52.272;5.136;2024-01-15T00:59:28;100258.31;;;3.20;86.85
64200;BME280;50516;52.272;5.136;2024-01-15T01:01:53;100254.44;;;3.28;86.04
64200;BME280;50516;52.272;5.136;2024-01-15T01:04:19;100257.84;;;3.11;86.70
64200;BME280;50516;52.272;5.136;2024-01-15T01:06:44;100244.88;;;3.02;87.74
64200;BME280;50516;52.272;5.136;2024-01-15T01:09:09;100233.66;;;3.10;87.91
64200;BME280;50516;52.272;5.136;2024-01-15T01:11:35;100238.66;;;3.01;88.70
64200;BME280;50516;52.272;5.136;2024-01-15T01:14:00;100239.13;;;2.98;88.90
64200;BME280;50516;52.272;5.136;2024-01-15T01:16:26;100246.19;;;2.99;89.79
64200;BME280;50516;52.272;5.136;2024-01-15T01:18:51;100235.59;;;2.86;90.30
64200;BME280;50516;52.272;5.136;2024-01-15T01:21:17;100237.34;;;3.04;89.83
64200;BME280;50516;52.272;5.136;2024-01-15T01:23:42;100230.13;;;3.09;88.93
64200;BME280;50516;52.272;5.136;2024-01-15T01:26:07;100230.00;;;3.16;88.90
64200;BME280;50516;52.272;5.136;2024-01-15T01:28:33;100224.97;;;3.20;88.48
64200;BME280;50516;52.272;5.136;2024-01-15T01:30:59;100224.97;;;3.20;88.27
64200;BME280;50516;52.272;5.136;2024-01-15T01:33:25;100220.94;;;3.10;88.42
64200;BME280;50516;52.272;5.136;2024-01-15T01:35:50;100221.16;;;3.21;88.58
64200;BME280;50516;52.272;5.136;2024-01-15T01:38:19;100220.81;;;3.17;88.14
64200;BME280;50516;52.272;5.136;2024-01-15T01:40:44;100215.91;;;3.02;88.93
64200;BME280;50516;52.272;5.136;2024-01-15T01:43:10;100226.28;;;3.05;90.02
64200;BME280;50516;52.272;5.136;2024-01-15T01:45:42;100234.50;;;2.99;90.46
64200;BME280;50516;52.272;5.136;2024-01-15T01:48:11;100247.50;;;2.85;92.04
64200;BME280;50516;52.272;5.136;2024-01-15T01:50:36;100250.09;;;3.15;92.00
64200;BME280;50516;52.272;5.136;2024-01-15T01:53:02;100250.78;;;2.99;92.48
64200;BME280;50516;52.272;5.136;2024-01-15T01:55:29;100246.31;;;2.81;94.33
64200;BME280;50516;52.272;5.136;2024-01-15T01:57:56;100237.59;;;2.67;95.93
64200;BME280;50516;52.272;5.136;2024-01-15T02:00:24;100239.25;;;2.80;96.46
64200;BME280;50516;52.272;5.136;2024-01-15T02:02:49;100238.19;;;2.92;96.45
64200;BME280;50516;52.272;5.136;2024-01-15T02:05:18;100230.03;;;2.81;97.04
64200;BME280;50516;52.272;5.136;2024-01-15T02:07:44;100230.16;;;2.62;98.18
64200;BME280;50516;52.272;5.136;2024-01-15T02:10:09;100221.41;;;2.48;98.99
64200;BME280;50516;52.272;5.136;2024-01-15T02:12:35;100222.88;;;2.74;98.81
64200;BME280;50516;52.272;5.136;2024-01-15T02:15:01;100230.03;;;2.81;98.31
64200;BME280;50516;52.272;5.136;2024-01-15T02:17:28;100229.09;;;2.75;98.23
64200;BME280;50516;52.272;5.136;2024-01-15T02:19:54;100221.44;;;2.60;98.90
64200;BME280;50516;52.272;5.136;2024-01-15T02:22:22;100221.06;;;2.56;99.40
64200;BME280;50516;52.272;5.136;2024-01-15T02:24:48;100214.94;;;2.49;99.72
64200;BME280;50516;52.272;5.136;2024-01-15T02:27:13;100214.75;;;2.74;99.41
64200;BME280;50516;52.272;5.136;2024-01-15T02:29:39;100218.84;;;2.65;98.45
64200;BME280;50516;52.272;5.136;2024-01-15T02:32:05;100219.81;;;2.83;98.78
64200;BME280;50516;52.272;5.136;2024-01-15T02:34:32;100214.63;;;2.81;98.12
64200;BME280;50516;52.272;5.136;2024-01-15T02:36:57;100213.44;;;2.65;98.45
64200;BME280;50516;52.272;5.136;2024-01-15T02:39:23;100217.19;;;2.64;99.32
64200;BME280;50516;52.272;5.136;2024-01-15T02:41:48;100214.72;;;2.86;98.62
64200;BME280;50516;52.272;5.136;2024-01-15T02:44:13;100213.53;;;2.94;97.97
64200;BME280;50516;52.272;5.136;2024-01-15T02:46:39;100207.38;;;3.10;97.79
64200;BME280;50516;52.272;5.136;2024-01-15T02:49:04;100203.13;;;3.15;98.07
64200;BME280;50516;52.272;5.136;2024-01-15T02:51:29;100206.53;;;3.22;97.75
64200;BME280;50516;52.272;5.136;2024-01-15T02:53:55;100211.03;;;3.28;97.63
64200;BME280;50516;52.272;5.136;2024-01-15T02:56:24;100206.84;;;3.37;96.86
64200;BME280;50516;52.272;5.136;2024-01-15T02:58:55;100207.22;;;3.29;96.50
64200;BME280;50516;52.272;5.136;2024-01-15T03:01:20;100207.06;;;3.36;96.55
64200;BME280;50516;52.272;5.136;2024-01-15T03:03:45;100205.44;;;3.35;97.11
64200;BME280;50516;52.272;5.136;2024-01-15T03:06:11;100216.16;;;3.41;96.33
64200;BME280;50516;52.272;5.136;2024-01-15T03:08:36;100214.59;;;3.45;96.11
64200;BME280;50516;52.272;5.136;2024-01-15T03:11:02;100224.13;;;3.60;95.63
64200;BME280;50516;52.272;5.136;2024-01-15T03:13:27;100225.38;;;3.40;95.45
64200;BME280;50516;52.272;5.136;2024-01-15T03:15:53;100229.06;;;3.22;95.88
64200;BME280;50516;52.272;5.136;2024-01-15T03:18:21;100234.41;;;3.05;96.98
64200;BME280;50516;52.272;5.136;2024-01-15T03:20:46;100234.03;;;3.02;97.58
64200;BME280;50516;52.272;5.136;2024-01-15T03:23:11;100234.88;;;2.79;97.43
64200;BME280;50516;52.272;5.136;2024-01-15T03:25:37;100222.25;;;2.72;98.38
64200;BME280;50516;52.272;5.136;2024-01-15T03:28:02;100212.13;;;2.91;97.72
64200;BME280;50516;52.272;5.136;2024-01-15T03:30:27;100210.94;;;2.99;97.14
64200;BME280;50516;52.272;5.136;2024-01-15T03:32:53;100196.06;;;3.02;96.77
64200;BME280;50516;52.272;5.136;2024-01-15T03:35:19;100203.97;;;3.03;96.62
64200;BME280;50516;52.272;5.136;2024-01-15T03:37:50;100191.34;;;3.09;97.32
64200;BME280;50516;52.272;5.136;2024-01-15T03:40:16;100181.78;;;3.06;97.02
64200;BME280;50516;52.272;5.136;2024-01-15T03:42:41;100178.75;;;3.03;97.22
64200;BME280;50516;52.272;5.136;2024-01-15T03:45:06;100172.75;;;3.01;96.95
64200;BME280;50516;52.272;5.136;2024-01-15T03:47:32;100183.81;;;2.99;96.58
64200;BME280;50516;52.272;5.136;2024-01-15T03:49:57;100179.69;;;2.97;96.74
64200;BME280;50516;52.272;5.136;2024-01-15T03:52:23;100171.09;;;2.88;96.57
64200;BME280;50516;52.272;5.136;2024-01-15T03:54:48;100159.19;;;2.89;96.48
64200;BME280;50516;52.272;5.136;2024-01-15T03:57:19;100164.03;;;2.87;96.26
64200;BME280;50516;52.272;5.136;2024-01-15T03:59:44;100159.06;;;2.84;95.86
64200;BME280;50516;52.272;5.136;2024-01-15T04:02:12;100166.63;;;2.82;96.24
64200;BME280;50516;52.272;5.136;2024-01-15T04:04:41;100161.91;;;2.77;96.83
64200;BME280;50516;52.272;5.136;2024-01-15T04:07:07;100161.56;;;2.73;96.44
64200;BME280;50516;52.272;5.136;2024-01-15T04:09:32;100155.69;;;2.77;96.20
64200;BME280;50516;52.272;5.136;2024-01-15T04:11:57;100151.88;;;2.78;96.16
64200;BME280;50516;52.272;5.136;2024-01-15T04:14:22;100158.38;;;2.77;96.08
64200;BME280;50516;52.272;5.136;2024-01-15T04:16:48;100158.63;;;2.75;96.27
64200;BME280;50516;52.272;5.136;2024-01-15T04:19:13;100160.63;;;2.80;95.72
64200;BME280;50516;52.272;5.136;2024-01-15T04:21:39;100157.44;;;2.83;95.79
64200;BME280;50516;52.272;5.136;2024-01-15T04:24:05;100147.28;;;2.90;95.99
64200;BME280;50516;52.272;5.136;2024-01-15T04:26:30;100155.75;;;2.93;95.59
64200;BME280;50516;52.272;5.136;2024-01-15T04:29:01;100163.06;;;2.93;95.94
64200;BME280;50516;52.272;5.136;2024-01-15T04:31:27;100152.72;;;2.66;95.87
64200;BME280;50516;52.272;5.136;2024-01-15T04:33:52;100156.28;;;2.67;97.31
64200;BME280;50516;52.272;5.136;2024-01-15T04:36:18;100162.97;;;2.64;97.20
64200;BME280;50516;52.272;5.136;2024-01-15T04:38:43;100146.03;;;2.57;97.93
64200;BME280;50516;52.272;5.136;2024-01-15T04:41:12;100140.97;;;2.49;98.82
64200;BME280;50516;52.272;5.136;2024-01-15T04:43:38;100144.16;;;2.46;99.39
64200;BME280;50516;52.272;5.136;2024-01-15T04:46:06;100129.91;;;2.50;100.00
64200;BME280;50516;52.272;5.136;2024-01-15T04:48:32;100120.56;;;2.58;100.00
64200;BME280;50516;52.272;5.136;2024-01-15T04:50:57;100115.75;;;2.60;99.54
64200;BME280;50516;52.272;5.136;2024-01-15T04:53:23;100125.75;;;2.71;99.22
64200;BME280;50516;52.272;5.136;2024-01-15T04:55:51;100131.53;;;2.63;99.68
64200;BME280;50516;52.272;5.136;2024-01-15T04:58:23;100144.13;;;2.69;99.14
64200;BME280;50516;52.272;5.136;2024-01-15T05:00:51;100133.06;;;2.59;99.60
64200;BME280;50516;52.272;5.136;2024-01-15T05:03:16;100128.69;;;2.58;99.04
64200;BME280;50516;52.272;5.136;2024-01-15T05:05:41;100132.56;;;2.74;99.17
64200;BME280;50516;52.272;5.136;2024-01-15T05:08:09;100130.13;;;2.61;99.18
64200;BME280;50516;52.272;5.136;2024-01-15T05:10:38;100134.59;;;2.55;99.74
64200;BME280;50516;52.272;5.136;2024-01-15T05:13:03;100123.97;;;2.65;98.95
64200;BME280;50516;52.272;5.136;2024-01-15T05:15:28;100119.34;;;2.78;98.25
64200;BME280;50516;52.272;5.136;2024-01-15T05:17:54;100127.16;;;2.86;98.30
64200;BME280;50516;52.272;5.136;2024-01-15T05:20:20;100135.38;;;2.91;97.98
64200;BME280;50516;52.272;5.136;2024-01-15T05:22:45;100129.38;;;2.77;98.31
64200;BME280;50516;52.272;5.136;2024-01-15T05:25:13;100139.78;;;2.68;99.24
64200;BME280;50516;52.272;5.136;2024-01-15T05:27:39;100136.38;;;2.49;99.04
64200;BME280;50516;52.272;5.136;2024-01-15T05:30:07;100133.31;;;2.46;99.78
64200;BME280;50516;52.272;5.136;2024-01-15T05:32:33;100128.09;;;2.32;100.00
64200;BME280;50516;52.272;5.136;2024-01-15T05:34:58;100127.88;;;2.46;100.00
64200;BME280;50516;52.272;5.136;2024-01-15T05:37:24;100133.50;;;2.80;100.00
64200;BME280;50516;52.272;5.136;2024-01-15T05:39:49;100146.56;;;2.95;98.73
64200;BME280;50516;52.272;5.136;2024-01-15T05:42:14;100167.69;;;2.92;98.05
64200;BME280;50516;52.272;5.136;2024-01-15T05:44:40;100152.47;;;2.68;99.01
64200;BME280;50516;52.272;5.136;2024-01-15T05:47:05;100147.56;;;2.53;99.68
64200;BME280;50516;52.272;5.136;2024-01-15T05:49:33;100138.72;;;2.46;100.00
64200;BME280;50516;52.272;5.136;2024-01-15T05:51:58;100129.84;;;2.74;100.00
64200;BME280;50516;52.272;5.136;2024-01-15T05:54:24;100131.97;;;2.84;99.41
64200;BME280;50516;52.272;5.136;2024-01-15T05:56:49;100131.00;;;2.90;98.92
64200;BME280;50516;52.272;5.136;2024-01-15T05:59:14;100129.47;;;2.94;98.68
64200;BME280;50516;52.272;5.136;2024-01-15T06:01:40;100121.59;;;2.92;98.13
64200;BME280;50516;52.272;5.136;2024-01-15T06:04:08;100124.53;;;2.91;98.55
64200;BME280;50516;52.272;5.136;2024-01-15T06:06:39;100116.03;;;2.99;98.54
64200;BME280;50516;52.272;5.136;2024-01-15T06:09:05;100125.06;;;3.05;97.92
64200;BME280;50516;52.272;5.136;2024-01-15T06:11:33;100122.59;;;3.03;98.31
64200;BME280;50516;52.272;5.136;2024-01-15T06:14:02;100114.94;;;3.12;97.70
64200;BME280;50516;52.272;5.136;2024-01-15T06:16:28;100116.22;;;3.09;97.68
64200;BME280;50516;52.272;5.136;2024-01-15T06:18:56;100115.06;;;3.05;97.90
64200;BME280;50516;52.272;5.136;2024-01-15T06:21:21;100116.03;;;2.99;98.01
64200;BME280;50516;52.272;5.136;2024-01-15T06:23:47;100105.56;;;2.91;98.31
64200;BME280;50516;52.272;5.136;2024-01-15T06:26:12;100104.59;;;2.85;98.71
64200;BME280;50516;52.272;5.136;2024-01-15T06:28:37;100109.22;;;2.85;98.89
64200;BME280;50516;52.272;5.136;2024-01-15T06:31:03;100114.63;;;2.85;98.73
64200;BME280;50516;52.272;5.136;2024-01-15T06:33:33;100110.88;;;2.86;98.41
64200;BME280;50516;52.272;5.136;2024-01-15T06:35:59;100101.78;;;2.80;98.46
64200;BME280;50516;52.272;5.136;2024-01-15T06:38:24;100107.56;;;2.84;98.55
64200;BME280;50516;52.272;5.136;2024-01-15T06:40:50;100109.56;;;2.88;98.29
64200;BME280;50516;52.272;5.136;2024-01-15T06:43:17;100101.75;;;2.92;98.09
64200;BME280;50516;52.272;5.136;2024-01-15T06:45:47;100111.94;;;2.85;98.16
64200;BME280;50516;52.272;5.136;2024-01-15T06:48:12;100125.97;;;2.58;99.28
64200;BME280;50516;52.272;5.136;2024-01-15T06:50:40;100128.84;;;2.40;100.00
64200;BME280;50516;52.272;5.136;2024-01-15T06:53:05;100129.66;;;2.40;100.00
64200;BME280;50516;52.272;5.136;2024-01-15T06:55:30;100140.47;;;2.64;100.00
64200;BME280;50516;52.272;5.136;2024-01-15T06:57:55;100137.31;;;2.43;100.00
64200;BME280;50516;52.272;5.136;2024-01-15T07:00:21;100137.19;;;2.26;100.00
64200;BME280;50516;52.272;5.136;2024-01-15T07:02:46;100131.28;;;2.53;100.00
64200;BME280;50516;52.272;5.136;2024-01-15T07:05:14;100122.44;;;2.69;99.73
64200;BME280;50516;52.272;5.136;2024-01-15T07:07:43;100121.81;;;2.79;99.49
64200;BME280;50516;52.272;5.136;2024-01-15T07:10:08;100118.53;;;2.77;99.21
64200;BME280;50516;52.272;5.136;2024-01-15T07:12:34;100117.47;;;2.66;99.34
64200;BME280;50516;52.272;5.136;2024-01-15T07:14:59;100115.72;;;2.72;99.49
64200;BME280;50516;52.272;5.136;2024-01-15T07:17:25;100115.59;;;2.79;99.26
64200;BME280;50516;52.272;5.136;2024-01-15T07:19:50;100111.94;;;2.85;99.42
64200;BME280;50516;52.272;5.136;2024-01-15T07:22:15;100106.16;;;2.81;98.83
64200;BME280;50516;52.272;5.136;2024-01-15T07:24:43;100112.97;;;2.84;99.01
64200;BME280;50516;52.272;5.136;2024-01-15T07:27:11;100121.22;;;2.89;98.80
64200;BME280;50516;52.272;5.136;2024-01-15T07:29:37;100136.22;;;2.68;98.53
64200;BME280;50516;52.272;5.136;2024-01-15T07:32:03;100134.00;;;2.77;99.14
64200;BME280;50516;52.272;5.136;2024-01-15T07:34:28;100126.31;;;2.85;98.90
64200;BME280;50516;52.272;5.136;2024-01-15T07:36:54;100114.03;;;2.95;98.49
64200;BME280;50516;52.272;5.136;2024-01-15T07:39:19;100109.41;;;2.95;98.52
64200;BME280;50516;52.272;5.136;2024-01-15T07:41:48;100119.69;;;2.93;98.55
64200;BME280;50516;52.272;5.136;2024-01-15T07:44:16;100111.44;;;2.88;98.04
64200;BME280;50516;52.272;5.136;2024-01-15T07:46:48;100103.78;;;2.85;98.51
64200;BME280;50516;52.272;5.136;2024-01-15T07:49:16;100104.84;;;2.84;98.67
64200;BME280;50516;52.272;5.136;2024-01-15T07:51:42;100109.34;;;2.78;98.61
64200;BME280;50516;52.272;5.136;2024-01-15T07:54:09;100104.16;;;2.77;98.48
64200;BME280;50516;52.272;5.136;2024-01-15T07:56:53;100109.13;;;2.80;98.29
64200;BME280;50516;52.272;5.136;2024-01-15T07:59:18;100105.78;;;2.78;98.13
64200;BME280;50516;52.272;5.136;2024-01-15T08:01:43;100113.22;;;2.82;97.87
64200;BME280;50516;52.272;5.136;2024-01-15T08:04:08;100123.59;;;2.85;97.60
64200;BME280;50516;52.272;5.136;2024-01-15T08:06:34;100123.72;;;2.79;97.81
64200;BME280;50516;52.272;5.136;2024-01-15T08:08:59;100143.88;;;2.71;98.13
64200;BME280;50516;52.272;5.136;2024-01-15T08:11:25;100151.09;;;2.42;98.51
64200;BME280;50516;52.272;5.136;2024-01-15T08:13:50;100148.31;;;1.82;100.00
64200;BME280;50516;52.272;5.136;2024-01-15T08:16:15;100141.69;;;1.67;100.00
64200;BME280;50516;52.272;5.136;2024-01-15T08:18:41;100139.69;;;1.74;100.00
64200;BME280;50516;52.272;5.136;2024-01-15T08:21:09;100131.00;;;1.95;100.00
64200;BME280;50516;52.272;5.136;2024-01-15T08:23:34;100129.72;;;1.86;100.00
64200;BME280;50516;52.272;5.136;2024-01-15T08:25:59;100132.19;;;1.88;100.00
64200;BME280;50516;52.272;5.136;2024-01-15T08:28:25;100120.34;;;2.24;100.00
64200;BME280;50516;52.272;5.136;2024-01-15T08:30:50;100115.16;;;2.34;100.00
64200;BME280;50516;52.272;5.136;2024-01-15T08:33:15;100107.97;;;2.40;100.00
64200;BME280;50516;52.272;5.136;2024-01-15T08:35:41;100103.97;;;2.54;100.00
64200;BME280;50516;52.272;5.136;2024-01-15T08:38:12;100102.53;;;2.64;99.35
64200;BME280;50516;52.272;5.136;2024-01-15T08:40:37;100112.78;;;2.73;99.45
64200;BME280;50516;52.272;5.136;2024-01-15T08:43:03;100101.94;;;2.73;98.95
64200;BME280;50516;52.272;5.136;2024-01-15T08:45:28;100111.94;;;2.85;98.85
64200;BME280;50516;52.272;5.136;2024-01-15T08:47:54;100122.88;;;2.90;97.97
64200;BME280;50516;52.272;5.136;2024-01-15T08:50:22;100123.59;;;2.85;98.07
64200;BME280;50516;52.272;5.136;2024-01-15T08:52:48;100120.31;;;2.83;98.42
64200;BME280;50516;52.272;5.136;2024-01-15T08:55:13;100122.81;;;2.73;99.17
64200;BME280;50516;52.272;5.136;2024-01-15T08:57:38;100116.41;;;2.79;99.50
64200;BME280;50516;52.272;5.136;2024-01-15T09:00:05;100112.56;;;2.63;99.31
64200;BME280;50516;52.272;5.136;2024-01-15T09:02:33;100114.19;;;2.64;99.59
64200;BME280;50516;52.272;5.136;2024-01-15T09:05:01;100114.56;;;2.56;99.17
64200;BME280;50516;52.272;5.136;2024-01-15T09:07:29;100115.16;;;2.70;99.91
64200;BME280;50516;52.272;5.136;2024-01-15T09:09:54;100111.34;;;2.83;99.11
64200;BME280;50516;52.272;5.136;2024-01-15T09:12:20;100109.56;;;2.88;98.45
64200;BME280;50516;52.272;5.136;2024-01-15T09:14:47;100109.75;;;2.99;98.02
64200;BME280;50516;52.272;5.136;2024-01-15T09:17:12;100112.22;;;3.00;97.83
64200;BME280;50516;52.272;5.136;2024-01-15T09:19:38;100115.75;;;3.13;97.32
64200;BME280;50516;52.272;5.136;2024-01-15T09:22:06;100116.53;;;3.25;97.13
64200;BME280;50516;52.272;5.136;2024-01-15T09:24:35;100116.72;;;3.35;96.37
64200;BME280;50516;52.272;5.136;2024-01-15T09:27:00;100127.00;;;3.33;96.80
64200;BME280;50516;52.272;5.136;2024-01-15T09:29:26;100117.78;;;3.34;96.71
64200;BME280;50516;52.272;5.136;2024-01-15T09:31:51;100128.53;;;3.29;97.08
64200;BME280;50516;52.272;5.136;2024-01-15T09:34:17;100121.47;;;3.28;97.20
64200;BME280;50516;52.272;5.136;2024-01-15T09:36:42;100112.84;;;3.31;96.79
64200;BME280;50516;52.272;5.136;2024-01-15T09:39:09;100121.81;;;3.60;96.02
64200;BME280;50516;52.272;5.136;2024-01-15T09:41:37;100122.00;;;4.05;94.50
64200;BME280;50516;52.272;5.136;2024-01-15T09:44:05;100120.63;;;4.19;93.55
64200;BME280;50516;52.272;5.136;2024-01-15T09:46:32;100133.28;;;4.13;93.78
64200;BME280;50516;52.272;5.136;2024-01-15T09:48:58;100118.31;;;4.11;94.24
64200;BME280;50516;52.272;5.136;2024-01-15T09:51:24;100121.38;;;3.97;93.90
64200;BME280;50516;52.272;5.136;2024-01-15T09:53:54;100122.25;;;3.86;94.39
64200;BME280;50516;52.272;5.136;2024-01-15T09:56:20;100126.63;;;4.21;93.67
64200;BME280;50516;52.272;5.136;2024-01-15T09:58:46;100118.03;;;4.85;91.61
64200;BME280;50516;52.272;5.136;2024-01-15T10:01:12;100122.78;;;5.17;89.98
64200;BME280;50516;52.272;5.136;2024-01-15T10:03:40;100139.09;;;4.56;90.41
64200;BME280;50516;52.272;5.136;2024-01-15T10:06:07;100152.91;;;4.15;92.84
64200;BME280;50516;52.272;5.136;2024-01-15T10:08:35;100147.75;;;3.85;92.98
64200;BME280;50516;52.272;5.136;2024-01-15T10:11:01;100156.41;;;3.53;94.61
64200;BME280;50516;52.272;5.136;2024-01-15T10:13:27;100145.19;;;3.21;95.63
64200;BME280;50516;52.272;5.136;2024-01-15T10:15:53;100142.19;;;3.34;96.13
64200;BME280;50516;52.272;5.136;2024-01-15T10:18:18;100139.06;;;3.54;95.94
64200;BME280;50516;52.272;5.136;2024-01-15T10:20:44;100145.50;;;3.65;95.50
64200;BME280;50516;52.272;5.136;2024-01-15T10:23:10;100151.25;;;3.97;94.88
64200;BME280;50516;52.272;5.136;2024-01-15T10:25:35;100157.56;;;4.37;92.95
64200;BME280;50516;52.272;5.136;2024-01-15T10:28:02;100139.63;;;4.19;93.16
64200;BME280;50516;52.272;5.136;2024-01-15T10:30:28;100156.91;;;3.96;94.47
64200;BME280;50516;52.272;5.136;2024-01-15T10:33:00;100150.00;;;3.88;94.64
64200;BME280;50516;52.272;5.136;2024-01-15T10:35:30;100151.97;;;3.93;94.00
64200;BME280;50516;52.272;5.136;2024-01-15T10:37:59;100166.94;;;3.78;93.65
64200;BME280;50516;52.272;5.136;2024-01-15T10:40:24;100168.28;;;3.64;93.69
64200;BME280;50516;52.272;5.136;2024-01-15T10:42:50;100165.28;;;3.20;91.21
64200;BME280;50516;52.272;5.136;2024-01-15T10:45:16;100165.53;;;3.06;92.30
64200;BME280;50516;52.272;5.136;2024-01-15T10:47:42;100176.25;;;3.01;93.28
64200;BME280;50516;52.272;5.136;2024-01-15T10:50:11;100205.78;;;2.86;94.11
64200;BME280;50516;52.272;5.136;2024-01-15T10:52:38;100180.66;;;2.55;96.96
64200;BME280;50516;52.272;5.136;2024-01-15T10:55:09;100185.13;;;2.61;97.91
64200;BME280;50516;52.272;5.136;2024-01-15T10:57:38;100185.84;;;2.68;98.14
64200;BME280;50516;52.272;5.136;2024-01-15T11:00:04;100185.59;;;2.46;99.04
64200;BME280;50516;52.272;5.136;2024-01-15T11:02:35;100184.78;;;2.58;98.59
64200;BME280;50516;52.272;5.136;2024-01-15T11:05:00;100190.31;;;2.51;97.67
64200;BME280;50516;52.272;5.136;2024-01-15T11:07:26;100195.88;;;2.44;98.29
64200;BME280;50516;52.272;5.136;2024-01-15T11:09:52;100186.78;;;2.74;97.61
64200;BME280;50516;52.272;5.136;2024-01-15T11:12:17;100181.09;;;3.11;96.51
64200;BME280;50516;52.272;5.136;2024-01-15T11:14:47;100177.72;;;3.33;95.31
64200;BME280;50516;52.272;5.136;2024-01-15T11:17:14;100178.66;;;3.38;94.10
64200;BME280;50516;52.272;5.136;2024-01-15T11:19:50;100179.94;;;3.36;93.99
64200;BME280;50516;52.272;5.136;2024-01-15T11:25:17;100179.31;;;3.17;94.06
64200;BME280;50516;52.272;5.136;2024-01-15T11:30:13;100179.31;;;3.17;95.11
64200;BME280;50516;52.272;5.136;2024-01-15T11:32:39;100174.81;;;3.22;95.24
64200;BME280;50516;52.272;5.136;2024-01-15T11:35:08;100185.25;;;3.42;94.38
64200;BME280;50516;52.272;5.136;2024-01-15T11:40:38;100203.59;;;3.64;93.71
64200;BME280;50516;52.272;5.136;2024-01-15T11:43:05;100189.22;;;3.52;93.12
64200;BME280;50516;52.272;5.136;2024-01-15T11:45:31;100199.19;;;3.92;92.81
64200;BME280;50516;52.272;5.136;2024-01-15T11:48:12;100187.03;;;4.11;90.94
64200;BME280;50516;52.272;5.136;2024-01-15T11:50:43;100196.53;;;4.26;90.65
64200;BME280;50516;52.272;5.136;2024-01-15T11:53:32;100196.31;;;4.44;90.03
64200;BME280;50516;52.272;5.136;2024-01-15T11:56:14;100195.47;;;4.27;89.56
64200;BME280;50516;52.272;5.136;2024-01-15T11:58:39;100205.03;;;4.46;89.40
64200;BME280;50516;52.272;5.136;2024-01-15T12:01:05;100201.22;;;4.64;87.93
64200;BME280;50516;52.272;5.136;2024-01-15T12:03:33;100192.75;;;5.00;87.16
64200;BME280;50516;52.272;5.136;2024-01-15T12:05:59;100199.16;;;5.10;86.95
64200;BME280;50516;52.272;5.136;2024-01-15T12:08:25;100195.66;;;5.15;86.01
64200;BME280;50516;52.272;5.136;2024-01-15T12:10:52;100209.09;;;4.83;87.12
64200;BME280;50516;52.272;5.136;2024-01-15T12:13:18;100214.50;;;4.61;88.28
64200;BME280;50516;52.272;5.136;2024-01-15T12:15:45;100240.41;;;4.17;89.02
64200;BME280;50516;52.272;5.136;2024-01-15T12:18:15;100266.34;;;3.15;91.67
64200;BME280;50516;52.272;5.136;2024-01-15T12:20:42;100250.88;;;2.45;95.14
64200;BME280;50516;52.272;5.136;2024-01-15T12:23:08;100243.88;;;2.13;97.56
64200;BME280;50516;52.272;5.136;2024-01-15T12:25:34;100246.47;;;2.20;98.02
64200;BME280;50516;52.272;5.136;2024-01-15T12:28:00;100251.28;;;2.18;98.23
64200;BME280;50516;52.272;5.136;2024-01-15T12:30:27;100237.03;;;2.11;98.64
64200;BME280;50516;52.272;5.136;2024-01-15T12:32:53;100226.31;;;2.16;99.34
64200;BME280;50516;52.272;5.136;2024-01-15T12:35:18;100224.81;;;2.32;99.19
64200;BME280;50516;52.272;5.136;2024-01-15T12:37:44;100218.94;;;2.35;98.71
64200;BME280;50516;52.272;5.136;2024-01-15T12:40:11;100231.91;;;2.56;97.91
64200;BME280;50516;52.272;5.136;2024-01-15T12:42:37;100221.66;;;2.47;98.57
64200;BME280;50516;52.272;5.136;2024-01-15T12:45:05;100233.44;;;2.64;97.71
64200;BME280;50516;52.272;5.136;2024-01-15T12:47:31;100231.91;;;2.56;98.19
64200;BME280;50516;52.272;5.136;2024-01-15T12:49:57;100239.56;;;2.48;98.77
64200;BME280;50516;52.272;5.136;2024-01-15T12:52:29;100252.31;;;2.71;98.73
64200;BME280;50516;52.272;5.136;2024-01-15T12:54:54;100250.44;;;2.83;97.28
64200;BME280;50516;52.272;5.136;2024-01-15T12:57:20;100250.91;;;2.92;97.28
64200;BME280;50516;52.272;5.136;2024-01-15T12:59:46;100239.47;;;2.90;97.11
64200;BME280;50516;52.272;5.136;2024-01-15T13:02:15;100243.00;;;3.14;96.85
64200;BME280;50516;52.272;5.136;2024-01-15T13:04:40;100239.69;;;3.24;95.84